createdAt,value
2023-04-11T00:01:22.176Z,6.68
2023-04-11T00:04:35.009Z,6.73
2023-04-11T00:07:47.109Z,6.74
2023-04-11T00:10:59.254Z,6.73
2023-04-11T00:14:12.812Z,6.68
2023-04-11T00:17:25.305Z,6.53
2023-04-11T00:20:37.844Z,6.42
2023-04-11T00:23:50.053Z,6.30
2023-04-11T00:27:02.336Z,6.11
2023-04-11T00:30:16.961Z,6.04
2023-04-11T00:33:29.199Z,5.95
2023-04-11T00:36:42.286Z,5.86
2023-04-11T00:39:54.987Z,5.86
2023-04-11T00:43:07.151Z,5.84
2023-04-11T00:46:19.581Z,5.81
2023-04-11T00:49:32.238Z,5.77
2023-04-11T00:52:45.475Z,5.73
2023-04-11T00:55:58.374Z,5.71
2023-04-11T00:59:10.541Z,5.67
2023-04-11T01:02:24.999Z,5.58
2023-04-11T01:05:40.587Z,5.60
2023-04-11T01:08:55.279Z,5.68
2023-04-11T01:12:09.823Z,5.66
2023-04-11T01:15:22.448Z,5.71
2023-04-11T01:18:34.868Z,5.75
2023-04-11T01:21:47.657Z,5.78
2023-04-11T01:25:02.325Z,5.71
2023-04-11T01:28:15.458Z,5.53
2023-04-11T01:31:27.889Z,5.47
2023-04-11T01:34:42.590Z,5.47
2023-04-11T01:37:55.336Z,5.38
2023-04-11T01:41:08.777Z,5.32
2023-04-11T01:44:21.965Z,5.23
2023-04-11T01:47:34.096Z,5.13
2023-04-11T01:50:46.381Z,4.99
2023-04-11T01:53:58.417Z,4.91
2023-04-11T01:57:10.773Z,4.87
2023-04-11T02:00:25.574Z,4.90
2023-04-11T02:03:37.895Z,4.84
2023-04-11T02:06:50.097Z,4.76
2023-04-11T02:10:04.695Z,4.77
2023-04-11T02:13:18.416Z,4.68
2023-04-11T02:16:30.864Z,4.64
2023-04-11T02:19:45.533Z,4.59
2023-04-11T02:22:58.907Z,4.53
2023-04-11T02:26:11.443Z,4.46
2023-04-11T02:29:23.569Z,4.51
2023-04-11T02:32:36.141Z,4.55
2023-04-11T02:35:50.117Z,4.57
2023-04-11T02:39:02.841Z,4.50
2023-04-11T02:42:15.482Z,4.40
2023-04-11T02:45:27.967Z,4.31
2023-04-11T02:48:40.925Z,4.23
2023-04-11T02:51:53.403Z,4.32
2023-04-11T02:55:05.467Z,4.31
2023-04-11T02:58:18.490Z,4.29
2023-04-11T03:01:32.814Z,4.26
2023-04-11T03:04:45.058Z,4.12
2023-04-11T03:07:59.173Z,4.05
2023-04-11T03:11:13.413Z,4.08
2023-04-11T03:14:26.152Z,4.09
2023-04-11T03:17:40.105Z,4.10
2023-04-11T03:20:53.054Z,4.10
2023-04-11T03:24:05.279Z,4.10
2023-04-11T03:27:17.544Z,3.99
2023-04-11T03:30:30.589Z,3.78
2023-04-11T03:33:42.776Z,3.81
2023-04-11T03:36:55.622Z,3.78
2023-04-11T03:40:10.114Z,3.72
2023-04-11T03:43:24.552Z,3.55
2023-04-11T03:46:37.116Z,3.55
2023-04-11T03:49:50.669Z,3.55
2023-04-11T03:53:03.034Z,3.44
2023-04-11T03:56:17.133Z,3.31
2023-04-11T03:59:29.389Z,3.24
2023-04-11T04:02:43.392Z,3.19
2023-04-11T04:05:57.648Z,3.07
2023-04-11T04:09:09.879Z,3.04
2023-04-11T04:12:24.343Z,3.02
2023-04-11T04:15:38.248Z,3.06
2023-04-11T04:18:51.251Z,3.04
2023-04-11T04:22:06.170Z,3.05
2023-04-11T04:25:20.400Z,2.87
2023-04-11T04:28:33.893Z,2.84
2023-04-11T04:31:49.938Z,2.85
2023-04-11T04:35:02.578Z,2.90
2023-04-11T04:38:18.213Z,2.95
2023-04-11T04:41:36.521Z,2.90
2023-04-11T04:44:48.750Z,3.02
2023-04-11T04:48:02.702Z,3.14
2023-04-11T04:51:15.764Z,3.25
2023-04-11T04:54:28.935Z,3.34
2023-04-11T04:57:43.078Z,3.26
2023-04-11T05:00:58.600Z,3.23
2023-04-11T05:04:12.762Z,3.28
2023-04-11T05:07:27.951Z,3.30
2023-04-11T05:10:40.094Z,3.42
2023-04-11T05:13:52.584Z,3.60
2023-04-11T05:17:04.747Z,3.68
2023-04-11T05:20:20.197Z,3.73
2023-04-11T05:23:32.537Z,3.73
2023-04-11T05:26:47.090Z,3.87
2023-04-11T05:30:01.677Z,3.99
2023-04-11T05:33:16.602Z,4.05
2023-04-11T05:36:29.695Z,4.06
2023-04-11T05:39:41.803Z,4.09
2023-04-11T05:42:53.855Z,4.11
2023-04-11T05:46:06.466Z,4.30
2023-04-11T05:49:18.458Z,4.21
2023-04-11T05:52:30.515Z,4.37
2023-04-11T05:55:42.846Z,4.44
2023-04-11T05:58:55.086Z,4.44
2023-04-11T06:02:07.213Z,4.60
2023-04-11T06:05:21.379Z,4.78
2023-04-11T06:08:34.615Z,4.77
2023-04-11T06:11:46.782Z,4.86
2023-04-11T06:14:59.021Z,4.81
2023-04-11T06:18:11.301Z,4.87
2023-04-11T06:21:23.482Z,5.18
2023-04-11T06:24:46.164Z,5.40
2023-04-11T06:27:58.350Z,5.49
2023-04-11T06:31:12.717Z,5.55
2023-04-11T06:34:25.067Z,5.54
2023-04-11T06:37:37.425Z,5.80
2023-04-11T06:40:51.702Z,5.94
2023-04-11T06:44:03.755Z,6.03
2023-04-11T06:47:15.918Z,6.02
2023-04-11T06:50:28.111Z,6.07
2023-04-11T06:53:40.161Z,6.09
2023-04-11T06:56:52.508Z,5.95
2023-04-11T07:00:06.765Z,6.13
2023-04-11T07:03:20.270Z,6.25
2023-04-11T07:06:32.565Z,6.53
2023-04-11T07:09:44.968Z,6.80
2023-04-11T07:12:57.103Z,7.10
2023-04-11T07:16:09.861Z,7.11
2023-04-11T07:19:22.043Z,7.26
2023-04-11T07:22:34.460Z,7.79
2023-04-11T07:25:47.830Z,8.62
2023-04-11T07:29:00.233Z,9.10
2023-04-11T07:32:13.381Z,9.97
2023-04-11T07:35:25.908Z,10.58
2023-04-11T07:38:38.530Z,11.50
2023-04-11T07:41:50.803Z,12.58
2023-04-11T07:45:03.049Z,12.99
2023-04-11T07:48:15.338Z,13.18
2023-04-11T07:51:28.059Z,12.90
2023-04-11T07:54:40.889Z,12.64
2023-04-11T07:57:53.282Z,13.15
2023-04-11T08:01:06.264Z,13.14
2023-04-11T08:04:18.843Z,13.42
2023-04-11T08:07:31.634Z,13.57
2023-04-11T08:10:43.858Z,13.88
2023-04-11T08:13:56.434Z,13.96
2023-04-11T08:17:17.568Z,13.82
2023-04-11T08:20:25.210Z,13.85
2023-04-11T08:23:37.922Z,14.16
2023-04-11T08:26:50.425Z,14.08
2023-04-11T08:30:03.959Z,14.30
2023-04-11T08:33:16.034Z,14.77
2023-04-11T08:36:28.086Z,14.51
2023-04-11T08:39:40.682Z,14.86
2023-04-11T08:42:53.868Z,15.35
2023-04-11T08:46:09.341Z,15.35
2023-04-11T08:49:21.902Z,15.65
2023-04-11T08:52:34.549Z,15.76
2023-04-11T08:55:53.928Z,16.18
2023-04-11T08:59:06.218Z,16.29
2023-04-11T09:02:19.074Z,16.54
2023-04-11T09:05:36.720Z,16.65
2023-04-11T09:08:49.407Z,17.10
2023-04-11T09:12:03.218Z,17.06
2023-04-11T09:15:28.631Z,17.43
2023-04-11T09:18:43.235Z,17.78
2023-04-11T09:22:01.014Z,18.15
2023-04-11T09:25:15.308Z,18.12
2023-04-11T09:28:27.548Z,17.80
2023-04-11T09:31:49.864Z,17.47
2023-04-11T09:35:20.809Z,17.22
2023-04-11T09:38:41.092Z,16.84
2023-04-11T09:41:54.025Z,16.95
2023-04-11T09:45:07.349Z,17.01
2023-04-11T09:48:21.124Z,17.50
2023-04-11T09:53:40.553Z,17.74
2023-04-11T09:54:50.621Z,18.00
2023-04-11T09:58:02.881Z,17.35
2023-04-11T10:01:17.294Z,17.01
2023-04-11T10:04:30.157Z,17.76
2023-04-11T10:07:57.114Z,17.86
2023-04-11T10:11:12.518Z,18.73
2023-04-11T10:14:52.082Z,18.45
2023-04-11T10:18:18.002Z,18.64
2023-04-11T10:21:48.456Z,18.60
2023-04-11T10:25:24.952Z,18.55
2023-04-11T10:28:47.295Z,18.19
2023-04-11T10:32:16.704Z,17.59
2023-04-11T10:35:31.135Z,17.77
2023-04-11T10:38:56.702Z,18.56
2023-04-11T10:42:33.072Z,18.51
2023-04-11T10:45:45.655Z,18.12
2023-04-11T10:49:09.943Z,18.13
2023-04-11T10:52:27.983Z,18.83
2023-04-11T10:55:52.960Z,18.33
2023-04-11T10:59:05.275Z,17.81
2023-04-11T11:02:20.125Z,17.46
2023-04-11T11:05:32.998Z,17.08
2023-04-11T11:08:47.142Z,17.04
2023-04-11T11:12:14.004Z,16.87
2023-04-11T11:15:26.702Z,16.89
2023-04-11T11:18:39.293Z,16.87
2023-04-11T11:21:53.888Z,16.87
2023-04-11T11:25:15.377Z,16.83
2023-04-11T11:31:47.954Z,16.91
2023-04-11T11:35:00.536Z,17.00
2023-04-11T11:38:12.637Z,16.93
2023-04-11T11:41:24.938Z,17.38
2023-04-11T11:44:38.793Z,17.81
2023-04-11T11:47:53.005Z,17.78
2023-04-11T11:51:05.506Z,17.89
2023-04-11T11:54:18.284Z,17.86
2023-04-11T11:57:30.538Z,17.70
2023-04-11T12:00:46.197Z,18.20
2023-04-11T12:03:59.244Z,18.24
2023-04-11T12:07:17.672Z,18.55
2023-04-11T12:10:31.616Z,17.89
2023-04-11T12:13:45.782Z,17.63
2023-04-11T12:22:59.322Z,18.06
2023-04-11T12:26:11.936Z,18.71
2023-04-11T12:29:26.437Z,18.71
2023-04-11T12:32:39.410Z,18.71
2023-04-11T12:35:51.685Z,18.58
2023-04-11T12:39:03.977Z,18.72
2023-04-11T12:42:18.669Z,18.93
2023-04-11T12:45:32.774Z,19.28
2023-04-11T12:48:44.868Z,18.98
2023-04-11T12:51:57.010Z,19.12
2023-04-11T12:55:10.198Z,18.83
2023-04-11T12:58:22.400Z,18.84
2023-04-11T13:01:34.592Z,18.58
2023-04-11T13:04:46.964Z,18.45
2023-04-11T13:07:59.247Z,18.24
2023-04-11T13:11:11.948Z,18.51
2023-04-11T13:14:23.967Z,18.34
2023-04-11T13:17:36.101Z,18.50
2023-04-11T13:20:48.204Z,18.97
2023-04-11T13:24:00.376Z,18.99
2023-04-11T13:27:12.569Z,19.12
2023-04-11T13:30:25.067Z,19.32
2023-04-11T13:33:37.325Z,19.01
2023-04-11T13:36:49.383Z,18.98
2023-04-11T13:40:01.949Z,18.74
2023-04-11T13:43:14.466Z,18.81
2023-04-11T13:46:27.523Z,18.83
2023-04-11T13:49:39.616Z,18.71
2023-04-11T13:52:51.611Z,18.42
2023-04-11T13:56:04.140Z,18.66
2023-04-11T13:59:16.368Z,18.71
2023-04-11T14:02:28.390Z,18.91
2023-04-11T14:05:40.617Z,18.70
2023-04-11T14:08:52.899Z,18.70
2023-04-11T14:12:05.413Z,18.16
2023-04-11T14:15:20.024Z,18.00
2023-04-11T14:18:32.871Z,18.09
2023-04-11T14:21:44.936Z,18.14
2023-04-11T14:24:58.341Z,18.07
2023-04-11T14:28:10.694Z,17.98
2023-04-11T14:31:22.884Z,17.78
2023-04-11T14:34:35.978Z,17.77
2023-04-11T14:37:49.646Z,17.79
2023-04-11T14:41:01.658Z,17.78
2023-04-11T14:44:13.588Z,17.71
2023-04-11T14:47:25.621Z,17.53
2023-04-11T14:50:37.751Z,17.39
2023-04-11T14:53:52.215Z,17.33
2023-04-11T14:57:04.848Z,17.26
2023-04-11T15:00:24.856Z,17.09
2023-04-11T15:03:37.758Z,17.06
2023-04-11T15:06:50.288Z,16.98
2023-04-11T15:10:02.552Z,16.88
2023-04-11T15:13:14.764Z,16.76
2023-04-11T15:16:27.623Z,16.67
2023-04-11T15:19:39.908Z,16.53
2023-04-11T15:22:52.330Z,16.42
2023-04-11T15:26:06.173Z,16.33
2023-04-11T15:29:21.166Z,16.22
2023-04-11T15:32:33.267Z,16.19
2023-04-11T15:35:46.726Z,16.05
2023-04-11T15:39:00.061Z,16.01
2023-04-11T15:42:12.751Z,16.00
2023-04-11T15:45:25.171Z,15.95
2023-04-11T15:48:37.165Z,15.77
2023-04-11T15:51:50.793Z,15.69
2023-04-11T15:55:02.755Z,15.60
2023-04-11T15:58:14.806Z,15.64
2023-04-11T16:01:45.561Z,15.32
2023-04-11T16:05:01.446Z,14.78
2023-04-11T16:08:13.801Z,14.11
2023-04-11T16:11:26.118Z,12.52
2023-04-11T16:14:38.298Z,11.57
2023-04-11T16:29:35.338Z,10.72
2023-04-11T16:32:47.336Z,10.59
2023-04-11T16:35:59.505Z,10.58
2023-04-11T16:39:11.774Z,10.66
2023-04-11T16:42:24.080Z,10.81
2023-04-11T16:45:36.969Z,10.86
2023-04-11T16:48:50.417Z,10.94
2023-04-11T16:52:02.609Z,10.88
2023-04-11T16:55:16.986Z,10.81
2023-04-11T16:58:29.214Z,10.80
2023-04-11T17:01:41.396Z,10.83
2023-04-11T17:04:53.464Z,10.79
2023-04-11T17:08:05.499Z,10.74
2023-04-11T17:11:18.082Z,10.67
2023-04-11T17:14:30.629Z,10.62
2023-04-11T17:17:42.618Z,10.55
2023-04-11T17:20:55.403Z,10.55
2023-04-11T17:24:07.497Z,10.51
2023-04-11T17:27:19.608Z,10.47
2023-04-11T17:30:33.036Z,10.47
2023-04-11T17:33:45.595Z,10.47
2023-04-11T17:36:58.361Z,10.48
2023-04-11T17:40:17.669Z,10.49
2023-04-11T17:43:32.473Z,10.45
2023-04-11T17:46:44.683Z,10.46
2023-04-11T17:49:57.027Z,10.43
2023-04-11T17:53:09.087Z,10.29
2023-04-11T17:56:55.116Z,10.26
2023-04-11T18:00:11.192Z,10.25
2023-04-11T18:03:24.195Z,10.23
2023-04-11T18:06:37.750Z,10.22
2023-04-11T18:09:52.070Z,10.26
2023-04-11T18:13:05.467Z,10.18
2023-04-11T18:16:18.540Z,10.12
2023-04-11T18:19:31.350Z,10.04
2023-04-11T18:22:46.318Z,10.02
2023-04-11T18:25:59.484Z,10.02
2023-04-11T18:29:13.136Z,9.97
2023-04-11T18:32:28.703Z,9.80
2023-04-11T18:35:40.183Z,9.87
2023-04-11T18:42:18.759Z,9.73
2023-04-11T18:45:32.357Z,9.70
2023-04-11T18:48:45.015Z,9.59
2023-04-11T18:52:00.507Z,9.51
2023-04-11T18:55:15.115Z,9.52
2023-04-11T18:58:30.304Z,9.38
2023-04-11T19:01:43.773Z,9.41
2023-04-11T19:04:56.976Z,9.38
2023-04-11T19:11:50.642Z,9.31
2023-04-11T19:15:04.193Z,9.22
2023-04-11T19:18:16.908Z,9.27
2023-04-11T19:21:29.915Z,9.13
2023-04-11T19:36:44.154Z,8.97
2023-04-11T19:51:34.946Z,8.65
2023-04-11T19:54:47.683Z,8.58
2023-04-11T19:57:59.974Z,8.56
2023-04-11T20:25:16.037Z,7.97
2023-04-11T20:28:28.197Z,7.92
2023-04-11T20:31:40.650Z,7.84
2023-04-11T20:34:52.782Z,7.84
2023-04-11T20:38:05.043Z,7.91
2023-04-11T20:41:19.185Z,7.88
2023-04-11T20:44:33.618Z,7.88
2023-04-11T20:47:47.816Z,7.90
2023-04-11T20:51:01.956Z,7.92
2023-04-11T20:54:14.229Z,7.92
2023-04-11T20:57:26.895Z,7.83
2023-04-11T21:00:49.975Z,7.87
2023-04-11T21:04:02.861Z,7.85
2023-04-11T21:22:59.057Z,7.84
